sensor_id;sensor_type;location;lat;lon;timestamp;P1;durP1;ratioP1;P2;durP2;ratioP2
77226;SDS011;66234;47.642;19.144;2023-01-10T00:01:11;15.13;;;9.85;;
77226;SDS011;66234;47.642;19.144;2023-01-10T00:04:14;17.88;;;11.18;;
77226;SDS011;66234;47.642;19.144;2023-01-10T00:07:16;18.42;;;11.35;;
77226;SDS011;66234;47.642;19.144;2023-01-10T00:10:19;19.85;;;11.02;;
77226;SDS011;66234;47.642;19.144;2023-01-10T00:13:22;17.27;;;12.07;;
77226;SDS011;66234;47.642;19.144;2023-01-10T00:16:24;18.00;;;11.40;;
77226;SDS011;66234;47.642;19.144;2023-01-10T00:19:28;15.75;;;9.98;;
77226;SDS011;66234;47.642;19.144;2023-01-10T00:22:30;20.58;;;12.25;;
77226;SDS011;66234;47.642;19.144;2023-01-10T00:25:33;20.63;;;11.55;;
77226;SDS011;66234;47.642;19.144;2023-01-10T00:28:37;19.77;;;10.50;;
77226;SDS011;66234;47.642;19.144;2023-01-10T00:31:40;16.73;;;10.38;;
77226;SDS011;66234;47.642;19.144;2023-01-10T00:34:43;15.85;;;9.90;;
77226;SDS011;66234;47.642;19.144;2023-01-10T00:37:45;14.77;;;10.10;;
77226;SDS011;66234;47.642;19.144;2023-01-10T00:40:48;14.95;;;10.10;;
77226;SDS011;66234;47.642;19.144;2023-01-10T00:43:50;18.13;;;9.60;;
77226;SDS011;66234;47.642;19.144;2023-01-10T00:46:59;14.50;;;9.18;;
77226;SDS011;66234;47.642;19.144;2023-01-10T00:50:02;14.68;;;9.63;;
77226;SDS011;66234;47.642;19.144;2023-01-10T00:53:07;14.23;;;9.13;;
77226;SDS011;66234;47.642;19.144;2023-01-10T00:56:10;14.50;;;8.75;;
77226;SDS011;66234;47.642;19.144;2023-01-10T00:59:12;14.37;;;8.53;;
77226;SDS011;66234;47.642;19.144;2023-01-10T01:02:15;13.73;;;8.82;;
77226;SDS011;66234;47.642;19.144;2023-01-10T01:05:17;13.63;;;8.63;;
77226;SDS011;66234;47.642;19.144;2023-01-10T01:08:20;12.27;;;8.32;;
77226;SDS011;66234;47.642;19.144;2023-01-10T01:11:23;12.90;;;7.85;;
77226;SDS011;66234;47.642;19.144;2023-01-10T01:14:26;15.20;;;7.50;;
77226;SDS011;66234;47.642;19.144;2023-01-10T01:17:29;11.80;;;7.97;;
77226;SDS011;66234;47.642;19.144;2023-01-10T01:20:33;10.55;;;7.55;;
77226;SDS011;66234;47.642;19.144;2023-01-10T01:23:35;9.35;;;6.32;;
77226;SDS011;66234;47.642;19.144;2023-01-10T01:26:38;11.88;;;6.65;;
77226;SDS011;66234;47.642;19.144;2023-01-10T01:29:43;8.53;;;5.57;;
77226;SDS011;66234;47.642;19.144;2023-01-10T01:32:46;9.00;;;6.00;;
77226;SDS011;66234;47.642;19.144;2023-01-10T01:35:49;7.70;;;5.45;;
77226;SDS011;66234;47.642;19.144;2023-01-10T01:38:51;7.57;;;4.90;;
77226;SDS011;66234;47.642;19.144;2023-01-10T01:41:54;6.90;;;5.10;;
77226;SDS011;66234;47.642;19.144;2023-01-10T01:51:21;6.32;;;4.60;;
77226;SDS011;66234;47.642;19.144;2023-01-10T01:54:28;7.05;;;3.88;;
77226;SDS011;66234;47.642;19.144;2023-01-10T01:57:32;5.15;;;3.75;;
77226;SDS011;66234;47.642;19.144;2023-01-10T02:00:36;6.90;;;4.37;;
77226;SDS011;66234;47.642;19.144;2023-01-10T02:03:39;6.68;;;4.07;;
77226;SDS011;66234;47.642;19.144;2023-01-10T02:06:44;5.72;;;4.45;;
77226;SDS011;66234;47.642;19.144;2023-01-10T02:13:18;3.53;;;2.83;;
77226;SDS011;66234;47.642;19.144;2023-01-10T02:16:24;6.67;;;4.00;;
77226;SDS011;66234;47.642;19.144;2023-01-10T02:37:24;5.45;;;3.65;;
77226;SDS011;66234;47.642;19.144;2023-01-10T02:40:13;5.63;;;3.38;;
77226;SDS011;66234;47.642;19.144;2023-01-10T02:43:33;5.65;;;3.13;;
77226;SDS011;66234;47.642;19.144;2023-01-10T02:46:40;4.20;;;3.17;;
77226;SDS011;66234;47.642;19.144;2023-01-10T02:49:46;4.50;;;3.10;;
77226;SDS011;66234;47.642;19.144;2023-01-10T02:52:50;5.30;;;3.63;;
77226;SDS011;66234;47.642;19.144;2023-01-10T03:06:53;5.23;;;3.40;;
77226;SDS011;66234;47.642;19.144;2023-01-10T03:10:02;4.68;;;3.10;;
77226;SDS011;66234;47.642;19.144;2023-01-10T03:13:20;5.10;;;3.47;;
77226;SDS011;66234;47.642;19.144;2023-01-10T03:16:32;4.72;;;3.40;;
77226;SDS011;66234;47.642;19.144;2023-01-10T03:19:57;4.95;;;3.30;;
77226;SDS011;66234;47.642;19.144;2023-01-10T03:23:04;6.63;;;4.10;;
77226;SDS011;66234;47.642;19.144;2023-01-10T03:26:08;6.72;;;4.47;;
77226;SDS011;66234;47.642;19.144;2023-01-10T03:29:12;6.40;;;4.57;;
77226;SDS011;66234;47.642;19.144;2023-01-10T03:32:20;6.13;;;4.57;;
77226;SDS011;66234;47.642;19.144;2023-01-10T03:35:30;5.88;;;4.57;;
77226;SDS011;66234;47.642;19.144;2023-01-10T03:45:14;7.70;;;5.15;;
77226;SDS011;66234;47.642;19.144;2023-01-10T03:48:22;8.38;;;5.00;;
77226;SDS011;66234;47.642;19.144;2023-01-10T03:51:30;7.80;;;5.13;;
77226;SDS011;66234;47.642;19.144;2023-01-10T03:54:34;4.93;;;3.40;;
77226;SDS011;66234;47.642;19.144;2023-01-10T03:57:36;6.18;;;3.22;;
77226;SDS011;66234;47.642;19.144;2023-01-10T04:00:42;5.95;;;3.58;;
77226;SDS011;66234;47.642;19.144;2023-01-10T04:03:45;4.28;;;2.92;;
77226;SDS011;66234;47.642;19.144;2023-01-10T04:06:47;3.92;;;2.97;;
77226;SDS011;66234;47.642;19.144;2023-01-10T04:09:50;4.13;;;2.77;;
77226;SDS011;66234;47.642;19.144;2023-01-10T04:12:52;2.42;;;1.80;;
77226;SDS011;66234;47.642;19.144;2023-01-10T04:15:55;2.83;;;2.00;;
77226;SDS011;66234;47.642;19.144;2023-01-10T04:19:01;2.35;;;1.92;;
77226;SDS011;66234;47.642;19.144;2023-01-10T04:22:03;3.05;;;2.13;;
77226;SDS011;66234;47.642;19.144;2023-01-10T04:25:07;3.53;;;1.70;;
77226;SDS011;66234;47.642;19.144;2023-01-10T04:28:09;2.88;;;1.70;;
77226;SDS011;66234;47.642;19.144;2023-01-10T04:31:12;2.25;;;1.80;;
77226;SDS011;66234;47.642;19.144;2023-01-10T04:34:15;3.13;;;1.92;;
77226;SDS011;66234;47.642;19.144;2023-01-10T04:37:17;2.08;;;1.50;;
77226;SDS011;66234;47.642;19.144;2023-01-10T04:40:22;2.40;;;1.47;;
77226;SDS011;66234;47.642;19.144;2023-01-10T04:43:25;1.63;;;1.00;;
77226;SDS011;66234;47.642;19.144;2023-01-10T04:46:27;1.90;;;1.38;;
77226;SDS011;66234;47.642;19.144;2023-01-10T04:49:30;2.30;;;1.05;;
77226;SDS011;66234;47.642;19.144;2023-01-10T04:52:32;3.67;;;1.30;;
77226;SDS011;66234;47.642;19.144;2023-01-10T04:55:35;1.97;;;1.23;;
77226;SDS011;66234;47.642;19.144;2023-01-10T04:58:37;2.15;;;1.55;;
77226;SDS011;66234;47.642;19.144;2023-01-10T05:01:40;2.65;;;1.48;;
77226;SDS011;66234;47.642;19.144;2023-01-10T05:04:43;2.90;;;1.48;;
77226;SDS011;66234;47.642;19.144;2023-01-10T05:07:45;7.68;;;2.40;;
77226;SDS011;66234;47.642;19.144;2023-01-10T05:10:48;3.63;;;2.50;;
77226;SDS011;66234;47.642;19.144;2023-01-10T05:13:51;2.65;;;1.50;;
77226;SDS011;66234;47.642;19.144;2023-01-10T05:16:53;2.50;;;2.05;;
77226;SDS011;66234;47.642;19.144;2023-01-10T05:19:57;2.67;;;1.70;;
77226;SDS011;66234;47.642;19.144;2023-01-10T05:22:59;2.45;;;2.00;;
77226;SDS011;66234;47.642;19.144;2023-01-10T05:26:05;2.80;;;1.73;;
77226;SDS011;66234;47.642;19.144;2023-01-10T05:29:09;1.98;;;1.70;;
77226;SDS011;66234;47.642;19.144;2023-01-10T05:32:12;1.75;;;1.52;;
77226;SDS011;66234;47.642;19.144;2023-01-10T05:35:15;2.83;;;1.85;;
77226;SDS011;66234;47.642;19.144;2023-01-10T05:38:18;1.75;;;1.45;;
77226;SDS011;66234;47.642;19.144;2023-01-10T05:41:21;3.47;;;1.97;;
77226;SDS011;66234;47.642;19.144;2023-01-10T05:44:24;4.13;;;1.77;;
77226;SDS011;66234;47.642;19.144;2023-01-10T05:47:27;2.47;;;1.73;;
77226;SDS011;66234;47.642;19.144;2023-01-10T05:50:30;2.70;;;1.77;;
77226;SDS011;66234;47.642;19.144;2023-01-10T05:53:34;2.22;;;1.90;;
77226;SDS011;66234;47.642;19.144;2023-01-10T05:56:37;2.30;;;1.17;;
77226;SDS011;66234;47.642;19.144;2023-01-10T05:59:43;2.97;;;2.05;;
77226;SDS011;66234;47.642;19.144;2023-01-10T06:02:45;2.45;;;1.73;;
77226;SDS011;66234;47.642;19.144;2023-01-10T06:05:48;2.25;;;1.67;;
77226;SDS011;66234;47.642;19.144;2023-01-10T06:08:50;3.05;;;1.60;;
77226;SDS011;66234;47.642;19.144;2023-01-10T06:11:56;1.10;;;0.67;;
77226;SDS011;66234;47.642;19.144;2023-01-10T06:14:59;1.20;;;0.80;;
77226;SDS011;66234;47.642;19.144;2023-01-10T06:18:02;0.93;;;0.70;;
77226;SDS011;66234;47.642;19.144;2023-01-10T06:21:05;1.15;;;0.70;;
77226;SDS011;66234;47.642;19.144;2023-01-10T06:24:08;1.25;;;0.65;;
77226;SDS011;66234;47.642;19.144;2023-01-10T06:27:11;1.20;;;0.50;;
77226;SDS011;66234;47.642;19.144;2023-01-10T06:30:14;1.00;;;0.63;;
77226;SDS011;66234;47.642;19.144;2023-01-10T06:33:16;0.82;;;0.52;;
77226;SDS011;66234;47.642;19.144;2023-01-10T06:36:19;0.70;;;0.40;;
77226;SDS011;66234;47.642;19.144;2023-01-10T06:39:22;1.17;;;0.80;;
77226;SDS011;66234;47.642;19.144;2023-01-10T06:42:25;0.80;;;0.30;;
77226;SDS011;66234;47.642;19.144;2023-01-10T06:45:27;2.47;;;0.43;;
77226;SDS011;66234;47.642;19.144;2023-01-10T06:48:30;1.85;;;0.63;;
77226;SDS011;66234;47.642;19.144;2023-01-10T06:51:33;0.93;;;0.30;;
77226;SDS011;66234;47.642;19.144;2023-01-10T06:54:35;0.73;;;0.20;;
77226;SDS011;66234;47.642;19.144;2023-01-10T06:57:38;0.80;;;0.20;;
77226;SDS011;66234;47.642;19.144;2023-01-10T07:00:41;1.48;;;0.30;;
77226;SDS011;66234;47.642;19.144;2023-01-10T07:03:43;0.77;;;0.30;;
77226;SDS011;66234;47.642;19.144;2023-01-10T07:06:46;1.35;;;0.30;;
77226;SDS011;66234;47.642;19.144;2023-01-10T07:09:49;1.23;;;0.25;;
77226;SDS011;66234;47.642;19.144;2023-01-10T07:12:55;1.33;;;0.30;;
77226;SDS011;66234;47.642;19.144;2023-01-10T07:16:00;0.82;;;0.20;;
77226;SDS011;66234;47.642;19.144;2023-01-10T07:19:07;2.40;;;0.38;;
77226;SDS011;66234;47.642;19.144;2023-01-10T07:22:11;0.90;;;0.25;;
77226;SDS011;66234;47.642;19.144;2023-01-10T07:25:13;0.70;;;0.20;;
77226;SDS011;66234;47.642;19.144;2023-01-10T07:28:16;1.53;;;0.30;;
77226;SDS011;66234;47.642;19.144;2023-01-10T07:31:19;0.70;;;0.40;;
77226;SDS011;66234;47.642;19.144;2023-01-10T07:34:24;0.88;;;0.35;;
77226;SDS011;66234;47.642;19.144;2023-01-10T07:37:26;0.65;;;0.30;;
77226;SDS011;66234;47.642;19.144;2023-01-10T07:40:29;1.42;;;0.35;;
77226;SDS011;66234;47.642;19.144;2023-01-10T07:43:32;1.20;;;0.40;;
77226;SDS011;66234;47.642;19.144;2023-01-10T07:46:35;1.40;;;0.70;;
77226;SDS011;66234;47.642;19.144;2023-01-10T07:49:37;1.58;;;0.55;;
77226;SDS011;66234;47.642;19.144;2023-01-10T07:52:42;19.50;;;11.20;;
77226;SDS011;66234;47.642;19.144;2023-01-10T07:55:44;3.97;;;2.30;;
77226;SDS011;66234;47.642;19.144;2023-01-10T07:58:47;2.93;;;1.07;;
77226;SDS011;66234;47.642;19.144;2023-01-10T08:01:50;10.02;;;2.85;;
77226;SDS011;66234;47.642;19.144;2023-01-10T08:04:52;3.22;;;1.20;;
77226;SDS011;66234;47.642;19.144;2023-01-10T08:07:55;1.23;;;0.60;;
77226;SDS011;66234;47.642;19.144;2023-01-10T08:11:01;2.40;;;0.98;;
77226;SDS011;66234;47.642;19.144;2023-01-10T08:14:04;1.47;;;0.60;;
77226;SDS011;66234;47.642;19.144;2023-01-10T08:17:06;2.63;;;1.00;;
77226;SDS011;66234;47.642;19.144;2023-01-10T08:20:09;4.18;;;1.50;;
77226;SDS011;66234;47.642;19.144;2023-01-10T08:23:12;2.78;;;0.70;;
77226;SDS011;66234;47.642;19.144;2023-01-10T08:26:15;2.60;;;0.93;;
77226;SDS011;66234;47.642;19.144;2023-01-10T08:29:18;0.73;;;0.20;;
77226;SDS011;66234;47.642;19.144;2023-01-10T08:32:21;0.90;;;0.60;;
77226;SDS011;66234;47.642;19.144;2023-01-10T08:35:24;0.95;;;0.40;;
77226;SDS011;66234;47.642;19.144;2023-01-10T08:38:26;0.80;;;0.40;;
77226;SDS011;66234;47.642;19.144;2023-01-10T08:41:29;1.65;;;1.00;;
77226;SDS011;66234;47.642;19.144;2023-01-10T08:44:32;3.20;;;0.83;;
77226;SDS011;66234;47.642;19.144;2023-01-10T08:47:34;4.85;;;2.40;;
77226;SDS011;66234;47.642;19.144;2023-01-10T08:50:37;7.63;;;4.10;;
77226;SDS011;66234;47.642;19.144;2023-01-10T08:53:40;15.13;;;7.43;;
77226;SDS011;66234;47.642;19.144;2023-01-10T08:56:43;2.90;;;1.08;;
77226;SDS011;66234;47.642;19.144;2023-01-10T08:59:46;1.07;;;0.37;;
77226;SDS011;66234;47.642;19.144;2023-01-10T09:02:48;0.88;;;0.20;;
77226;SDS011;66234;47.642;19.144;2023-01-10T09:05:51;0.93;;;0.55;;
77226;SDS011;66234;47.642;19.144;2023-01-10T09:08:53;0.57;;;0.20;;
77226;SDS011;66234;47.642;19.144;2023-01-10T09:11:56;0.50;;;0.30;;
77226;SDS011;66234;47.642;19.144;2023-01-10T09:14:59;0.30;;;0.10;;
77226;SDS011;66234;47.642;19.144;2023-01-10T09:18:03;0.77;;;0.20;;
77226;SDS011;66234;47.642;19.144;2023-01-10T09:21:07;1.45;;;0.40;;
77226;SDS011;66234;47.642;19.144;2023-01-10T09:24:10;0.50;;;0.32;;
77226;SDS011;66234;47.642;19.144;2023-01-10T09:27:12;0.40;;;0.20;;
77226;SDS011;66234;47.642;19.144;2023-01-10T09:30:15;0.50;;;0.10;;
77226;SDS011;66234;47.642;19.144;2023-01-10T09:33:18;2.10;;;0.52;;
77226;SDS011;66234;47.642;19.144;2023-01-10T09:36:21;0.82;;;0.22;;
77226;SDS011;66234;47.642;19.144;2023-01-10T09:39:23;1.30;;;0.13;;
77226;SDS011;66234;47.642;19.144;2023-01-10T09:42:33;0.80;;;0.20;;
77226;SDS011;66234;47.642;19.144;2023-01-10T09:45:52;0.80;;;0.20;;
77226;SDS011;66234;47.642;19.144;2023-01-10T09:55:32;0.35;;;0.00;;
77226;SDS011;66234;47.642;19.144;2023-01-10T09:58:37;0.52;;;0.10;;
77226;SDS011;66234;47.642;19.144;2023-01-10T10:01:40;0.53;;;0.20;;
77226;SDS011;66234;47.642;19.144;2023-01-10T10:04:43;0.38;;;0.00;;
77226;SDS011;66234;47.642;19.144;2023-01-10T10:07:57;0.85;;;0.35;;
77226;SDS011;66234;47.642;19.144;2023-01-10T10:11:54;0.85;;;0.13;;
77226;SDS011;66234;47.642;19.144;2023-01-10T10:21:21;1.63;;;0.40;;
77226;SDS011;66234;47.642;19.144;2023-01-10T10:27:40;0.63;;;0.15;;
77226;SDS011;66234;47.642;19.144;2023-01-10T10:34:33;0.77;;;0.10;;
77226;SDS011;66234;47.642;19.144;2023-01-10T10:37:40;0.28;;;0.15;;
77226;SDS011;66234;47.642;19.144;2023-01-10T10:40:47;0.50;;;0.17;;
77226;SDS011;66234;47.642;19.144;2023-01-10T10:43:51;0.40;;;0.10;;
77226;SDS011;66234;47.642;19.144;2023-01-10T10:46:58;0.68;;;0.20;;
77226;SDS011;66234;47.642;19.144;2023-01-10T10:53:07;0.82;;;0.20;;
77226;SDS011;66234;47.642;19.144;2023-01-10T10:56:13;0.50;;;0.00;;
77226;SDS011;66234;47.642;19.144;2023-01-10T10:59:18;0.82;;;0.47;;
77226;SDS011;66234;47.642;19.144;2023-01-10T11:02:29;2.47;;;1.38;;
77226;SDS011;66234;47.642;19.144;2023-01-10T11:05:38;0.97;;;0.20;;
77226;SDS011;66234;47.642;19.144;2023-01-10T11:08:44;0.70;;;0.30;;
77226;SDS011;66234;47.642;19.144;2023-01-10T11:11:48;1.63;;;0.63;;
77226;SDS011;66234;47.642;19.144;2023-01-10T11:14:53;0.90;;;0.28;;
77226;SDS011;66234;47.642;19.144;2023-01-10T11:18:03;0.80;;;0.35;;
77226;SDS011;66234;47.642;19.144;2023-01-10T11:21:15;1.47;;;0.30;;
77226;SDS011;66234;47.642;19.144;2023-01-10T11:24:33;0.82;;;0.32;;
77226;SDS011;66234;47.642;19.144;2023-01-10T11:27:44;1.08;;;0.30;;
77226;SDS011;66234;47.642;19.144;2023-01-10T11:30:58;1.83;;;1.00;;
77226;SDS011;66234;47.642;19.144;2023-01-10T11:34:04;0.80;;;0.28;;
77226;SDS011;66234;47.642;19.144;2023-01-10T11:40:21;0.90;;;0.50;;
77226;SDS011;66234;47.642;19.144;2023-01-10T11:43:37;1.52;;;0.45;;
77226;SDS011;66234;47.642;19.144;2023-01-10T11:46:44;0.70;;;0.20;;
77226;SDS011;66234;47.642;19.144;2023-01-10T11:49:50;1.38;;;0.32;;
77226;SDS011;66234;47.642;19.144;2023-01-10T11:52:53;0.97;;;0.50;;
77226;SDS011;66234;47.642;19.144;2023-01-10T11:55:56;0.70;;;0.30;;
77226;SDS011;66234;47.642;19.144;2023-01-10T11:59:05;1.70;;;0.60;;
77226;SDS011;66234;47.642;19.144;2023-01-10T12:02:29;0.57;;;0.10;;
77226;SDS011;66234;47.642;19.144;2023-01-10T12:05:35;0.77;;;0.32;;
77226;SDS011;66234;47.642;19.144;2023-01-10T12:08:39;1.00;;;0.30;;
77226;SDS011;66234;47.642;19.144;2023-01-10T12:11:46;1.73;;;0.70;;
77226;SDS011;66234;47.642;19.144;2023-01-10T12:14:49;0.75;;;0.60;;
77226;SDS011;66234;47.642;19.144;2023-01-10T12:17:53;1.05;;;0.63;;
77226;SDS011;66234;47.642;19.144;2023-01-10T12:20:58;1.50;;;0.47;;
77226;SDS011;66234;47.642;19.144;2023-01-10T12:24:03;0.90;;;0.60;;
77226;SDS011;66234;47.642;19.144;2023-01-10T12:27:14;1.40;;;0.55;;
77226;SDS011;66234;47.642;19.144;2023-01-10T12:30:22;1.75;;;0.63;;
77226;SDS011;66234;47.642;19.144;2023-01-10T12:33:35;1.98;;;0.60;;
77226;SDS011;66234;47.642;19.144;2023-01-10T12:40:33;0.73;;;0.30;;
77226;SDS011;66234;47.642;19.144;2023-01-10T12:43:48;1.30;;;0.60;;
77226;SDS011;66234;47.642;19.144;2023-01-10T12:50:38;1.02;;;0.20;;
77226;SDS011;66234;47.642;19.144;2023-01-10T12:53:47;1.75;;;0.95;;
77226;SDS011;66234;47.642;19.144;2023-01-10T12:56:54;0.60;;;0.20;;
77226;SDS011;66234;47.642;19.144;2023-01-10T13:00:02;1.20;;;0.50;;
77226;SDS011;66234;47.642;19.144;2023-01-10T13:03:10;1.20;;;0.50;;
77226;SDS011;66234;47.642;19.144;2023-01-10T13:06:59;2.15;;;0.45;;
77226;SDS011;66234;47.642;19.144;2023-01-10T13:09:43;1.40;;;0.50;;
77226;SDS011;66234;47.642;19.144;2023-01-10T13:13:01;1.63;;;0.40;;
77226;SDS011;66234;47.642;19.144;2023-01-10T13:19:25;0.80;;;0.28;;
77226;SDS011;66234;47.642;19.144;2023-01-10T13:22:29;1.05;;;0.30;;
77226;SDS011;66234;47.642;19.144;2023-01-10T13:25:37;0.40;;;0.10;;
77226;SDS011;66234;47.642;19.144;2023-01-10T13:28:51;0.40;;;0.10;;
77226;SDS011;66234;47.642;19.144;2023-01-10T13:31:57;1.92;;;0.55;;
77226;SDS011;66234;47.642;19.144;2023-01-10T13:35:09;2.70;;;0.77;;
77226;SDS011;66234;47.642;19.144;2023-01-10T13:38:24;1.15;;;0.50;;
77226;SDS011;66234;47.642;19.144;2023-01-10T13:42:36;0.90;;;0.40;;
77226;SDS011;66234;47.642;19.144;2023-01-10T13:45:44;0.53;;;0.10;;
77226;SDS011;66234;47.642;19.144;2023-01-10T13:55:31;2.08;;;0.50;;
77226;SDS011;66234;47.642;19.144;2023-01-10T13:58:54;1.83;;;0.10;;
77226;SDS011;66234;47.642;19.144;2023-01-10T14:02:25;2.23;;;0.30;;
77226;SDS011;66234;47.642;19.144;2023-01-10T14:05:30;2.00;;;0.70;;
77226;SDS011;66234;47.642;19.144;2023-01-10T14:08:32;1.90;;;0.70;;
77226;SDS011;66234;47.642;19.144;2023-01-10T14:11:47;1.13;;;0.50;;
77226;SDS011;66234;47.642;19.144;2023-01-10T14:15:07;1.30;;;0.60;;
77226;SDS011;66234;47.642;19.144;2023-01-10T14:18:29;0.43;;;0.10;;
77226;SDS011;66234;47.642;19.144;2023-01-10T14:21:40;1.15;;;0.17;;
77226;SDS011;66234;47.642;19.144;2023-01-10T14:24:48;0.98;;;0.20;;
77226;SDS011;66234;47.642;19.144;2023-01-10T14:27:54;3.47;;;1.58;;
77226;SDS011;66234;47.642;19.144;2023-01-10T14:31:02;1.88;;;0.85;;
77226;SDS011;66234;47.642;19.144;2023-01-10T14:34:09;1.73;;;0.90;;
77226;SDS011;66234;47.642;19.144;2023-01-10T14:37:22;2.30;;;0.80;;
77226;SDS011;66234;47.642;19.144;2023-01-10T14:43:43;1.27;;;0.60;;
77226;SDS011;66234;47.642;19.144;2023-01-10T14:46:50;2.72;;;0.77;;
77226;SDS011;66234;47.642;19.144;2023-01-10T14:49:55;1.27;;;0.70;;
77226;SDS011;66234;47.642;19.144;2023-01-10T14:53:14;1.27;;;0.57;;
77226;SDS011;66234;47.642;19.144;2023-01-10T14:56:37;0.90;;;0.40;;
77226;SDS011;66234;47.642;19.144;2023-01-10T14:59:44;1.33;;;0.73;;
77226;SDS011;66234;47.642;19.144;2023-01-10T15:02:48;1.60;;;0.90;;
77226;SDS011;66234;47.642;19.144;2023-01-10T15:05:52;2.23;;;0.83;;
77226;SDS011;66234;47.642;19.144;2023-01-10T15:08:58;1.63;;;0.75;;
77226;SDS011;66234;47.642;19.144;2023-01-10T15:12:02;2.05;;;1.13;;
77226;SDS011;66234;47.642;19.144;2023-01-10T15:15:12;2.35;;;0.85;;
77226;SDS011;66234;47.642;19.144;2023-01-10T15:18:26;2.88;;;1.50;;
77226;SDS011;66234;47.642;19.144;2023-01-10T15:21:39;5.03;;;2.20;;
77226;SDS011;66234;47.642;19.144;2023-01-10T15:24:43;3.40;;;1.40;;
77226;SDS011;66234;47.642;19.144;2023-01-10T15:27:58;7.55;;;3.38;;
77226;SDS011;66234;47.642;19.144;2023-01-10T15:31:04;10.15;;;3.47;;
77226;SDS011;66234;47.642;19.144;2023-01-10T15:34:18;5.53;;;2.30;;
77226;SDS011;66234;47.642;19.144;2023-01-10T15:37:28;3.57;;;1.80;;
77226;SDS011;66234;47.642;19.144;2023-01-10T15:40:39;2.22;;;1.10;;
77226;SDS011;66234;47.642;19.144;2023-01-10T15:43:43;1.42;;;1.15;;
77226;SDS011;66234;47.642;19.144;2023-01-10T15:46:53;1.05;;;0.60;;
77226;SDS011;66234;47.642;19.144;2023-01-10T15:49:57;1.10;;;0.82;;
77226;SDS011;66234;47.642;19.144;2023-01-10T15:53:00;1.93;;;1.07;;
77226;SDS011;66234;47.642;19.144;2023-01-10T15:56:13;3.20;;;1.83;;
77226;SDS011;66234;47.642;19.144;2023-01-10T16:02:31;2.63;;;1.38;;
77226;SDS011;66234;47.642;19.144;2023-01-10T16:05:34;3.40;;;2.30;;
77226;SDS011;66234;47.642;19.144;2023-01-10T16:08:38;5.77;;;2.50;;
77226;SDS011;66234;47.642;19.144;2023-01-10T16:11:45;6.78;;;3.22;;
77226;SDS011;66234;47.642;19.144;2023-01-10T16:15:13;4.28;;;1.50;;
77226;SDS011;66234;47.642;19.144;2023-01-10T16:18:18;3.03;;;1.20;;
77226;SDS011;66234;47.642;19.144;2023-01-10T16:21:20;5.22;;;2.10;;
77226;SDS011;66234;47.642;19.144;2023-01-10T16:24:30;8.17;;;4.03;;
77226;SDS011;66234;47.642;19.144;2023-01-10T16:27:35;16.98;;;5.75;;
77226;SDS011;66234;47.642;19.144;2023-01-10T16:30:37;5.75;;;2.83;;
77226;SDS011;66234;47.642;19.144;2023-01-10T16:33:44;8.00;;;3.53;;
77226;SDS011;66234;47.642;19.144;2023-01-10T16:36:47;4.32;;;1.38;;
77226;SDS011;66234;47.642;19.144;2023-01-10T16:39:49;3.97;;;2.40;;
77226;SDS011;66234;47.642;19.144;2023-01-10T16:42:52;3.83;;;1.42;;
77226;SDS011;66234;47.642;19.144;2023-01-10T16:46:14;4.18;;;1.90;;
77226;SDS011;66234;47.642;19.144;2023-01-10T16:49:18;2.50;;;1.27;;
77226;SDS011;66234;47.642;19.144;2023-01-10T16:52:21;3.88;;;1.50;;
77226;SDS011;66234;47.642;19.144;2023-01-10T16:55:26;4.43;;;2.23;;
77226;SDS011;66234;47.642;19.144;2023-01-10T16:58:38;3.35;;;1.63;;
77226;SDS011;66234;47.642;19.144;2023-01-10T17:01:41;2.90;;;1.52;;
77226;SDS011;66234;47.642;19.144;2023-01-10T17:04:47;3.55;;;1.85;;
77226;SDS011;66234;47.642;19.144;2023-01-10T17:07:50;3.63;;;2.03;;
77226;SDS011;66234;47.642;19.144;2023-01-10T17:10:53;3.60;;;1.40;;
77226;SDS011;66234;47.642;19.144;2023-01-10T17:14:00;3.30;;;1.60;;
77226;SDS011;66234;47.642;19.144;2023-01-10T17:17:03;2.70;;;2.05;;
77226;SDS011;66234;47.642;19.144;2023-01-10T17:20:06;2.97;;;1.63;;
77226;SDS011;66234;47.642;19.144;2023-01-10T17:23:11;2.05;;;1.20;;
77226;SDS011;66234;47.642;19.144;2023-01-10T17:26:16;1.80;;;0.80;;
77226;SDS011;66234;47.642;19.144;2023-01-10T17:29:21;1.88;;;1.30;;
77226;SDS011;66234;47.642;19.144;2023-01-10T17:32:24;2.13;;;0.90;;
77226;SDS011;66234;47.642;19.144;2023-01-10T17:35:27;1.73;;;0.98;;
77226;SDS011;66234;47.642;19.144;2023-01-10T17:38:30;1.95;;;0.95;;
77226;SDS011;66234;47.642;19.144;2023-01-10T17:41:34;3.60;;;1.43;;
77226;SDS011;66234;47.642;19.144;2023-01-10T17:44:36;2.97;;;1.70;;
77226;SDS011;66234;47.642;19.144;2023-01-10T17:47:39;3.70;;;1.85;;
77226;SDS011;66234;47.642;19.144;2023-01-10T17:50:42;4.38;;;2.63;;
77226;SDS011;66234;47.642;19.144;2023-01-10T17:53:45;2.97;;;2.00;;
77226;SDS011;66234;47.642;19.144;2023-01-10T17:56:48;2.37;;;1.27;;
77226;SDS011;66234;47.642;19.144;2023-01-10T17:59:50;1.80;;;1.00;;
77226;SDS011;66234;47.642;19.144;2023-01-10T18:02:53;2.67;;;1.00;;
77226;SDS011;66234;47.642;19.144;2023-01-10T18:05:56;3.83;;;1.60;;
77226;SDS011;66234;47.642;19.144;2023-01-10T18:09:00;2.72;;;1.00;;
77226;SDS011;66234;47.642;19.144;2023-01-10T18:12:03;2.83;;;1.40;;
77226;SDS011;66234;47.642;19.144;2023-01-10T18:15:07;2.33;;;0.80;;
77226;SDS011;66234;47.642;19.144;2023-01-10T18:18:10;1.73;;;1.05;;
77226;SDS011;66234;47.642;19.144;2023-01-10T18:21:14;1.45;;;0.60;;
77226;SDS011;66234;47.642;19.144;2023-01-10T18:24:19;1.60;;;0.80;;
77226;SDS011;66234;47.642;19.144;2023-01-10T18:27:23;1.37;;;0.70;;
77226;SDS011;66234;47.642;19.144;2023-01-10T18:30:27;3.33;;;1.42;;
77226;SDS011;66234;47.642;19.144;2023-01-10T18:33:30;3.00;;;1.77;;
77226;SDS011;66234;47.642;19.144;2023-01-10T18:36:33;3.45;;;1.25;;
77226;SDS011;66234;47.642;19.144;2023-01-10T18:39:39;2.05;;;1.20;;
77226;SDS011;66234;47.642;19.144;2023-01-10T18:42:41;2.23;;;1.00;;
77226;SDS011;66234;47.642;19.144;2023-01-10T18:45:45;2.03;;;1.00;;
77226;SDS011;66234;47.642;19.144;2023-01-10T18:48:50;2.22;;;1.20;;
77226;SDS011;66234;47.642;19.144;2023-01-10T18:51:53;1.90;;;0.80;;
77226;SDS011;66234;47.642;19.144;2023-01-10T18:54:56;1.13;;;0.70;;
77226;SDS011;66234;47.642;19.144;2023-01-10T18:57:58;1.27;;;0.60;;
77226;SDS011;66234;47.642;19.144;2023-01-10T19:01:08;1.10;;;0.80;;
77226;SDS011;66234;47.642;19.144;2023-01-10T19:04:12;2.35;;;0.95;;
77226;SDS011;66234;47.642;19.144;2023-01-10T19:07:15;2.05;;;0.55;;
77226;SDS011;66234;47.642;19.144;2023-01-10T19:10:18;1.75;;;0.85;;
77226;SDS011;66234;47.642;19.144;2023-01-10T19:13:21;1.63;;;0.60;;
77226;SDS011;66234;47.642;19.144;2023-01-10T19:16:25;1.80;;;0.52;;
77226;SDS011;66234;47.642;19.144;2023-01-10T19:19:30;1.20;;;0.70;;
77226;SDS011;66234;47.642;19.144;2023-01-10T19:22:32;1.23;;;0.47;;
77226;SDS011;66234;47.642;19.144;2023-01-10T19:25:35;1.85;;;0.90;;
77226;SDS011;66234;47.642;19.144;2023-01-10T19:28:37;2.00;;;0.70;;
77226;SDS011;66234;47.642;19.144;2023-01-10T19:31:40;2.28;;;0.95;;
77226;SDS011;66234;47.642;19.144;2023-01-10T19:34:43;2.42;;;1.38;;
77226;SDS011;66234;47.642;19.144;2023-01-10T19:37:47;2.47;;;1.20;;
77226;SDS011;66234;47.642;19.144;2023-01-10T19:40:50;2.00;;;1.10;;
77226;SDS011;66234;47.642;19.144;2023-01-10T19:43:57;2.90;;;1.13;;
77226;SDS011;66234;47.642;19.144;2023-01-10T19:47:01;2.88;;;1.25;;
77226;SDS011;66234;47.642;19.144;2023-01-10T19:50:04;2.72;;;1.00;;
77226;SDS011;66234;47.642;19.144;2023-01-10T19:53:07;2.08;;;1.00;;
77226;SDS011;66234;47.642;19.144;2023-01-10T19:56:10;2.17;;;1.15;;